createdAt,value
2018-11-04T00:00:24.461Z,1.44
2018-11-04T00:06:19.457Z,1.42
2018-11-04T00:12:14.509Z,1.28
2018-11-04T00:18:09.472Z,1.51
2018-11-04T00:24:04.525Z,1.73
2018-11-04T00:29:59.545Z,2.23
2018-11-04T00:35:54.502Z,2.01
2018-11-04T00:41:49.456Z,2.15
2018-11-04T00:47:44.481Z,1.83
2018-11-04T00:53:39.457Z,2.01
2018-11-04T00:59:34.483Z,2.16
2018-11-04T01:05:29.480Z,1.68
2018-11-04T01:11:24.492Z,2.24
2018-11-04T01:17:19.449Z,2.22
2018-11-04T01:23:14.472Z,1.96
2018-11-04T01:29:09.583Z,1.81
2018-11-04T01:35:04.500Z,1.76
2018-11-04T01:40:59.477Z,1.71
2018-11-04T01:46:54.582Z,2.2
2018-11-04T01:52:49.474Z,1.75
2018-11-04T01:58:44.498Z,2.09
2018-11-04T02:04:39.509Z,1.86
2018-11-04T02:10:34.493Z,2
2018-11-04T02:16:29.492Z,2.08
2018-11-04T02:22:24.478Z,2.8
2018-11-04T02:28:19.523Z,2.34
2018-11-04T02:34:14.514Z,2.45
2018-11-04T02:40:09.514Z,2.56
2018-11-04T02:46:04.523Z,2.24
2018-11-04T02:51:59.489Z,2.06
2018-11-04T02:57:54.504Z,2.59
2018-11-04T03:03:49.518Z,2.22
2018-11-04T03:09:44.500Z,2.23
2018-11-04T03:15:39.541Z,2.77
2018-11-04T03:21:34.515Z,2.5
2018-11-04T03:27:29.529Z,2.44
2018-11-04T03:33:24.538Z,2.44
2018-11-04T03:39:19.498Z,2.14
2018-11-04T03:45:14.540Z,2.44
2018-11-04T03:51:09.558Z,2.24
2018-11-04T03:57:04.531Z,2.16
2018-11-04T04:02:59.529Z,2.14
2018-11-04T04:08:54.597Z,2.07
2018-11-04T04:14:49.523Z,2.05
2018-11-04T04:20:44.552Z,2.12
2018-11-04T04:26:39.559Z,1.94
2018-11-04T04:32:34.639Z,2.4
2018-11-04T04:38:29.564Z,2.42
2018-11-04T04:44:24.544Z,2.32
2018-11-04T04:50:19.599Z,1.63
2018-11-04T04:56:14.576Z,2.67
2018-11-04T05:02:09.533Z,2.87
2018-11-04T05:08:04.560Z,1.71
2018-11-04T05:13:59.546Z,1.94
2018-11-04T05:19:54.555Z,1.93
2018-11-04T05:25:49.584Z,2.19
2018-11-04T05:31:44.582Z,2.07
2018-11-04T05:37:39.561Z,1.87
2018-11-04T05:43:34.541Z,2.1
2018-11-04T05:49:29.581Z,1.86
2018-11-04T05:55:24.558Z,2.73
2018-11-04T06:01:19.607Z,2.15
2018-11-04T06:07:14.587Z,1.92
2018-11-04T06:13:09.587Z,2.39
2018-11-04T06:19:04.627Z,2.26
2018-11-04T06:24:59.638Z,2.37
2018-11-04T06:30:54.564Z,2
2018-11-04T06:36:49.564Z,2.14
2018-11-04T06:42:44.574Z,3.55
2018-11-04T06:48:39.574Z,2.56
2018-11-04T06:54:34.588Z,2.11
2018-11-04T07:00:29.579Z,2.4
2018-11-04T07:06:24.578Z,2.66
2018-11-04T07:12:19.599Z,2.76
2018-11-04T07:18:14.585Z,2.76
2018-11-04T07:24:09.572Z,2.43
2018-11-04T07:30:04.581Z,3.3
2018-11-04T07:35:59.585Z,2.79
2018-11-04T07:41:54.584Z,2.35
2018-11-04T07:47:49.595Z,2.26
2018-11-04T07:53:44.625Z,2.31
2018-11-04T07:59:39.621Z,2.77
2018-11-04T08:05:34.591Z,2.63
2018-11-04T08:11:29.650Z,2.71
2018-11-04T08:17:24.620Z,2.69
2018-11-04T08:23:19.673Z,2.75
2018-11-04T08:29:14.612Z,2.88
2018-11-04T08:35:09.636Z,2.84
2018-11-04T08:41:04.602Z,2.96
2018-11-04T08:46:59.610Z,3.56
2018-11-04T08:52:54.627Z,3.18
2018-11-04T08:58:49.651Z,4.63
2018-11-04T09:04:44.622Z,2.81
2018-11-04T09:10:39.636Z,3.37
2018-11-04T09:16:34.646Z,4.47
2018-11-04T09:22:29.724Z,3.75
2018-11-04T09:28:24.624Z,3.73
2018-11-04T09:34:19.616Z,3.08
2018-11-04T09:40:14.656Z,3.93
2018-11-04T09:46:09.620Z,3.78
2018-11-04T09:52:04.632Z,3.41
2018-11-04T09:57:59.622Z,4.05
2018-11-04T10:03:54.625Z,4.78
2018-11-04T10:09:49.666Z,4.19
2018-11-04T10:15:44.677Z,3.87
2018-11-04T10:21:39.671Z,4.06
2018-11-04T10:27:34.656Z,4.44
2018-11-04T10:33:29.663Z,3.93
2018-11-04T10:39:24.654Z,4.85
2018-11-04T10:45:19.674Z,3.95
2018-11-04T10:51:14.688Z,3.75
2018-11-04T10:57:09.668Z,3.78
2018-11-04T11:03:04.725Z,3.91
2018-11-04T11:08:59.693Z,4.46
2018-11-04T11:14:54.653Z,4.99
2018-11-04T11:20:49.649Z,5.53
2018-11-04T11:26:44.663Z,11.94
2018-11-04T11:32:39.701Z,5.49
2018-11-04T11:38:34.663Z,4.83
2018-11-04T11:44:29.694Z,5.85
2018-11-04T11:50:24.695Z,6.26
2018-11-04T11:56:19.684Z,4.72
2018-11-04T12:02:14.819Z,4.66
2018-11-04T12:08:09.682Z,4.94
2018-11-04T12:14:04.672Z,5.16
2018-11-04T12:19:59.691Z,4.5
2018-11-04T12:25:54.673Z,5.41
2018-11-04T12:31:49.676Z,5.47
2018-11-04T12:37:44.683Z,6.91
2018-11-04T12:43:39.708Z,4.48
2018-11-04T12:49:34.719Z,4.34
2018-11-04T12:55:29.711Z,3.78
2018-11-04T13:01:24.723Z,3.29
2018-11-04T13:07:19.693Z,3.34
2018-11-04T13:13:14.688Z,2.62
2018-11-04T13:19:09.703Z,3.2
2018-11-04T13:25:04.715Z,2.71
2018-11-04T13:30:59.706Z,2.76
2018-11-04T13:36:54.742Z,2.92
2018-11-04T13:42:49.701Z,3.13
2018-11-04T13:48:44.729Z,3.24
2018-11-04T13:54:39.732Z,3.52
2018-11-04T14:00:34.752Z,3.37
2018-11-04T14:06:29.712Z,3.16
2018-11-04T14:12:24.710Z,3.16
2018-11-04T14:18:19.745Z,3.98
2018-11-04T14:24:14.736Z,3.63
2018-11-04T14:30:09.741Z,3.62
2018-11-04T14:36:04.724Z,3.41
2018-11-04T14:41:59.727Z,3.55
2018-11-04T14:47:54.768Z,4.5
2018-11-04T14:53:49.747Z,3.19
2018-11-04T14:59:44.809Z,3.43
2018-11-04T15:05:39.784Z,3.45
2018-11-04T15:11:34.758Z,3.65
2018-11-04T15:17:29.740Z,4.03
2018-11-04T15:23:24.748Z,3.76
2018-11-04T15:29:19.744Z,4.21
2018-11-04T15:35:14.751Z,4.3
2018-11-04T15:41:09.749Z,4.1
2018-11-04T15:47:04.745Z,3.48
2018-11-04T15:52:59.770Z,4.26
2018-11-04T15:58:54.743Z,4.05
2018-11-04T16:04:49.776Z,3.63
2018-11-04T16:10:44.806Z,4.24
2018-11-04T16:16:39.764Z,5.26
2018-11-04T16:22:34.793Z,5.02
2018-11-04T16:28:29.767Z,4.14
2018-11-04T16:34:24.801Z,3.97
2018-11-04T16:40:19.797Z,3.66
2018-11-04T16:46:14.763Z,3.92
2018-11-04T16:52:09.775Z,4.47
2018-11-04T16:58:04.771Z,3.85
2018-11-04T17:03:59.885Z,3.54
2018-11-04T17:09:54.792Z,4.37
2018-11-04T17:15:49.775Z,3.73
2018-11-04T17:21:44.808Z,4.17
2018-11-04T17:27:39.822Z,3.99
2018-11-04T17:33:34.806Z,4
2018-11-04T17:39:29.833Z,6.1
2018-11-04T17:45:24.816Z,5.37
2018-11-04T17:51:19.814Z,4.59
2018-11-04T17:57:14.808Z,4.47
2018-11-04T18:03:09.779Z,8.15
2018-11-04T18:09:04.799Z,8.29
2018-11-04T18:14:59.796Z,8.65
2018-11-04T18:20:54.801Z,8.5
2018-11-04T18:26:49.967Z,9.07
2018-11-04T18:32:44.831Z,8.57
2018-11-04T18:38:39.805Z,9.13
2018-11-04T18:44:34.932Z,9.45
2018-11-04T18:50:29.829Z,8.09
2018-11-04T18:56:24.840Z,5.6
2018-11-04T19:02:19.865Z,7.52
2018-11-04T19:08:14.835Z,6.91
2018-11-04T19:14:09.863Z,7.1
2018-11-04T19:20:04.845Z,5.89
2018-11-04T19:25:59.819Z,5.43
2018-11-04T19:31:54.836Z,5.59
2018-11-04T19:37:49.868Z,4.47
2018-11-04T19:43:44.862Z,5.02
2018-11-04T19:49:39.831Z,4.83
2018-11-04T19:55:34.851Z,5.78
2018-11-04T20:01:29.882Z,7.18
2018-11-04T20:07:24.824Z,5.92
2018-11-04T20:13:19.852Z,5.45
2018-11-04T20:19:14.940Z,5.84
2018-11-04T20:25:09.827Z,5.69
2018-11-04T20:31:05.926Z,5.7
2018-11-04T20:36:59.892Z,4.97
2018-11-04T20:42:54.853Z,3.15
2018-11-04T20:48:49.856Z,2.4
2018-11-04T20:54:44.847Z,3.47
2018-11-04T21:00:39.946Z,3.37
2018-11-04T21:06:34.848Z,3.94
2018-11-04T21:12:29.882Z,3.26
2018-11-04T21:18:24.901Z,2.33
2018-11-04T21:24:19.931Z,2.74
2018-11-04T21:30:14.858Z,2.92
2018-11-04T21:36:09.976Z,2.68
2018-11-04T21:42:04.927Z,1.66
2018-11-04T21:47:59.916Z,1.33
2018-11-04T21:53:54.923Z,2.15
2018-11-04T21:59:49.864Z,1.53
2018-11-04T22:05:44.898Z,1.25
2018-11-04T22:11:39.871Z,1.4
2018-11-04T22:17:34.861Z,1.45
2018-11-04T22:23:29.871Z,2.02
2018-11-04T22:29:24.893Z,1.93
2018-11-04T22:35:19.910Z,2.24
2018-11-04T22:41:14.896Z,1.63
2018-11-04T22:47:09.893Z,1.92
2018-11-04T22:53:04.888Z,2.1
2018-11-04T22:58:59.903Z,2.43
2018-11-04T23:04:54.879Z,2.04
2018-11-04T23:10:49.920Z,2.45
2018-11-04T23:16:44.887Z,3.3
2018-11-04T23:22:39.894Z,3.59
2018-11-04T23:28:34.885Z,4
2018-11-04T23:34:29.904Z,3.89
2018-11-04T23:40:24.911Z,4.15
2018-11-04T23:46:19.983Z,3.92
2018-11-04T23:52:14.886Z,4.33
2018-11-04T23:58:09.915Z,4.26
